Trine Charlotte — LMRY — position and weather

sailwx.info

Track history (hours):
 
Tides and Currents Weather Stations Pressure Air Temp Water Temp Dewpoint Dewpoint Depression Visibility Wind Speed Wind Dir Waves Ship Positions

Trine Charlotte

Last reported at 2014-Sep-01 20:32 UTC. Time now 2014-Sep-01 23:59 UTC.
Position N 66°20' E 012°56'.

Length 66 m; draft 4.6 m.

Type: . MMSI: 257233000.

Date/timePositionNaut miles runAvg speedWind from/ knotsBaromVisibWave heightAir tempDewpointWater temp
2014-Sep-01 20:32N 66°20' E 012°56'9 8.3
2014-Sep-01 19:30N 66°29' E 012°59'46 7.8
2014-Sep-01 13:33N 67°08' E 014°01'8 8.1
2014-Sep-01 12:33N 67°15' E 014°11'9 8.5
2014-Sep-01 11:34N 67°22' E 014°23'8 8.0
2014-Sep-01 10:34N 67°30' E 014°29'160 7.6
2014-Aug-31 13:33N 69°37' E 018°53'8 8.1
2014-Aug-31 12:34N 69°44' E 019°05'  
2014-Aug-28 11:33N 69°41' E 019°01'1 1.3
2014-Aug-28 10:33N 69°40' E 018°58'0 0.0
2014-Aug-28 09:33N 69°40' E 018°58'0 0.0
2014-Aug-28 08:33N 69°40' E 018°58'0 0.0
2014-Aug-28 07:34N 69°40' E 018°58'0 0.0
2014-Aug-28 06:33N 69°40' E 018°58'6 5.6
2014-Aug-28 05:33N 69°44' E 019°06'1 0.1
2014-Aug-27 20:17N 69°44' E 019°04'5 7.4
2014-Aug-27 19:33N 69°39' E 018°58'153 3.0
2014-Aug-25 16:29N 67°37' E 014°45'1 0.1
2014-Aug-25 01:18N 67°37' E 014°41'  
Track history (hours):
 
Tides and Currents Weather Stations Pressure Air Temp Water Temp Dewpoint Dewpoint Depression Visibility Wind Speed Wind Dir Waves Ship Positions

Trine Charlotte

Last reported at 2014-Sep-01 20:32 UTC. Time now 2014-Sep-01 23:59 UTC.
Position N 66°20' E 012°56'.

Length 66 m; draft 4.6 m.

Type: . MMSI: 257233000.

Date/timePositionNaut miles runAvg speedWind from/ knotsBaromVisibWave heightAir tempDewpointWater temp
2014-Sep-01 20:32N 66°20' E 012°56'9 8.3
2014-Sep-01 19:30N 66°29' E 012°59'46 7.8
2014-Sep-01 13:33N 67°08' E 014°01'8 8.1
2014-Sep-01 12:33N 67°15' E 014°11'9 8.5
2014-Sep-01 11:34N 67°22' E 014°23'8 8.0
2014-Sep-01 10:34N 67°30' E 014°29'160 7.6
2014-Aug-31 13:33N 69°37' E 018°53'8 8.1
2014-Aug-31 12:34N 69°44' E 019°05'  
2014-Aug-28 11:33N 69°41' E 019°01'1 1.3
2014-Aug-28 10:33N 69°40' E 018°58'0 0.0
2014-Aug-28 09:33N 69°40' E 018°58'0 0.0
2014-Aug-28 08:33N 69°40' E 018°58'0 0.0
2014-Aug-28 07:34N 69°40' E 018°58'0 0.0
2014-Aug-28 06:33N 69°40' E 018°58'6 5.6
2014-Aug-28 05:33N 69°44' E 019°06'1 0.1
2014-Aug-27 20:17N 69°44' E 019°04'5 7.4
2014-Aug-27 19:33N 69°39' E 018°58'153 3.0
2014-Aug-25 16:29N 67°37' E 014°45'1 0.1
2014-Aug-25 01:18N 67°37' E 014°41'  

Dump ship's entire track history